Time,TemperatureF,DewpointF,PressureIn,WindDirection,WindDirectionDegrees,WindSpeedMPH,WindSpeedGustMPH,Humidity,HourlyPrecipIn,Conditions,Clouds,dailyrainin,SolarRadiationWatts/m^2,SoftwareType,DateUTC
2013-04-08 00:12:00,56.0,46.0,-100.00,WSW,250,6.0,11.0,69,0.00,,,0.00,0.000000,,2013-04-08 07:12:00,
2013-04-08 00:22:00,56.0,46.0,-100.00,WSW,250,6.0,11.0,69,0.00,,,0.00,0.000000,,2013-04-08 07:22:00,
2013-04-08 00:32:00,56.0,46.0,-100.00,WSW,250,6.0,11.0,69,0.00,,,0.00,0.000000,,2013-04-08 07:32:00,
2013-04-08 00:42:00,56.0,46.0,-100.00,WSW,250,6.0,11.0,69,0.00,,,0.00,0.000000,,2013-04-08 07:42:00,
2013-04-08 01:22:00,56.0,47.0,-100.00,WSW,250,4.0,11.0,72,0.00,,,0.00,0.000000,,2013-04-08 08:22:00,
2013-04-08 01:32:00,56.0,47.0,-100.00,WSW,250,4.0,11.0,72,0.00,,,0.00,0.000000,,2013-04-08 08:32:00,
2013-04-08 01:42:00,56.0,47.0,-100.00,WSW,250,4.0,11.0,72,0.00,,,0.00,0.000000,,2013-04-08 08:42:00,
2013-04-08 02:12:00,52.0,46.0,-100.00,WSW,239,3.0,23.0,79,0.00,,,0.00,0.000000,,2013-04-08 09:12:00,
2013-04-08 02:22:00,52.0,46.0,-100.00,WSW,239,3.0,23.0,79,0.00,,,0.00,0.000000,,2013-04-08 09:22:00,
2013-04-08 02:33:00,52.0,46.0,-100.00,WSW,239,3.0,23.0,79,0.00,,,0.00,0.000000,,2013-04-08 09:33:00,
2013-04-08 02:42:00,52.0,46.0,-100.00,WSW,239,3.0,23.0,79,0.00,,,0.00,0.000000,,2013-04-08 09:42:00,
2013-04-08 03:13:00,54.0,47.0,-100.00,SSW,195,11.0,19.0,78,0.00,,,0.00,0.000000,,2013-04-08 10:13:00,
2013-04-08 03:23:00,54.0,47.0,-100.00,SSW,195,11.0,19.0,78,0.00,,,0.00,0.000000,,2013-04-08 10:23:00,
2013-04-08 03:32:00,54.0,47.0,-100.00,SSW,195,11.0,19.0,78,0.00,,,0.00,0.000000,,2013-04-08 10:32:00,
2013-04-08 03:42:00,54.0,47.0,-100.00,SSW,195,11.0,19.0,78,0.00,,,0.00,0.000000,,2013-04-08 10:42:00,
2013-04-08 04:12:00,52.0,49.0,-100.00,South,190,14.0,24.0,90,0.00,,,0.00,0.000000,,2013-04-08 11:12:00,
2013-04-08 04:22:00,52.0,49.0,-100.00,South,190,14.0,24.0,90,0.00,,,0.00,0.000000,,2013-04-08 11:22:00,
2013-04-08 04:32:00,52.0,49.0,-100.00,South,190,14.0,24.0,90,0.00,,,0.00,0.000000,,2013-04-08 11:32:00,
2013-04-08 04:42:00,52.0,49.0,-100.00,South,190,14.0,24.0,90,0.00,,,0.00,0.000000,,2013-04-08 11:42:00,
2013-04-08 05:12:00,50.0,48.0,-100.00,SSW,197,11.0,20.0,93,0.00,,,0.00,0.000000,,2013-04-08 12:12:00,
2013-04-08 05:22:00,50.0,48.0,-100.00,SSW,197,11.0,20.0,93,0.00,,,0.00,0.000000,,2013-04-08 12:22:00,
2013-04-08 05:32:00,50.0,48.0,-100.00,SSW,197,11.0,20.0,93,0.00,,,0.00,0.000000,,2013-04-08 12:32:00,
2013-04-08 05:42:00,50.0,48.0,-100.00,SSW,197,11.0,20.0,93,0.00,,,0.00,0.000000,,2013-04-08 12:42:00,
2013-04-08 06:12:00,50.0,48.0,-100.00,South,189,10.0,19.0,92,0.00,,,0.00,0.000000,,2013-04-08 13:12:00,
2013-04-08 06:22:00,50.0,48.0,-100.00,South,189,10.0,19.0,92,0.00,,,0.00,0.000000,,2013-04-08 13:22:00,
2013-04-08 06:32:00,50.0,48.0,-100.00,South,189,10.0,19.0,92,0.00,,,0.00,0.000000,,2013-04-08 13:32:00,
2013-04-08 06:42:00,50.0,48.0,-100.00,South,189,10.0,19.0,92,0.00,,,0.00,0.000000,,2013-04-08 13:42:00,
2013-04-08 07:12:00,49.0,44.0,-100.00,SW,222,16.0,23.0,83,0.00,,,0.00,4.000000,,2013-04-08 14:12:00,
2013-04-08 07:22:00,49.0,44.0,-100.00,SW,222,16.0,23.0,83,0.00,,,0.00,4.000000,,2013-04-08 14:22:00,
2013-04-08 07:32:00,49.0,44.0,-100.00,SW,222,16.0,23.0,83,0.00,,,0.00,4.000000,,2013-04-08 14:32:00,
2013-04-08 07:42:00,49.0,44.0,-100.00,SW,222,16.0,23.0,83,0.00,,,0.00,4.000000,,2013-04-08 14:42:00,
2013-04-08 08:12:00,48.0,45.0,-100.00,WSW,250,12.0,22.0,89,0.00,,,0.00,105.000000,,2013-04-08 15:12:00,
2013-04-08 08:22:00,48.0,45.0,-100.00,WSW,250,12.0,22.0,89,0.00,,,0.00,105.000000,,2013-04-08 15:22:00,
2013-04-08 08:33:00,48.0,45.0,-100.00,WSW,250,12.0,22.0,89,0.00,,,0.00,105.000000,,2013-04-08 15:33:00,
2013-04-08 08:42:00,48.0,45.0,-100.00,WSW,250,12.0,22.0,89,0.00,,,0.00,105.000000,,2013-04-08 15:42:00,
2013-04-08 09:13:00,51.0,44.0,-100.00,West,272,10.0,19.0,77,0.00,,,0.00,324.000000,,2013-04-08 16:13:00,
2013-04-08 09:22:00,51.0,44.0,-100.00,West,272,10.0,19.0,77,0.00,,,0.00,324.000000,,2013-04-08 16:22:00,
2013-04-08 09:32:00,51.0,44.0,-100.00,West,272,10.0,19.0,77,0.00,,,0.00,324.000000,,2013-04-08 16:32:00,
2013-04-08 09:42:00,51.0,44.0,-100.00,West,272,10.0,19.0,77,0.00,,,0.00,324.000000,,2013-04-08 16:42:00,
2013-04-08 10:12:00,53.0,35.0,-100.00,West,274,10.0,19.0,50,0.00,,,0.00,461.000000,,2013-04-08 17:12:00,
2013-04-08 10:22:00,53.0,35.0,-100.00,West,274,10.0,19.0,50,0.00,,,0.00,461.000000,,2013-04-08 17:22:00,
2013-04-08 10:32:00,53.0,35.0,-100.00,West,274,10.0,19.0,50,0.00,,,0.00,461.000000,,2013-04-08 17:32:00,
2013-04-08 10:42:00,53.0,35.0,-100.00,West,274,10.0,19.0,50,0.00,,,0.00,461.000000,,2013-04-08 17:42:00,
2013-04-08 11:12:00,59.0,22.0,-100.00,NW,320,12.0,34.0,24,0.00,,,0.00,726.000000,,2013-04-08 18:12:00,
2013-04-08 12:12:00,56.0,30.0,-100.00,WSW,237,16.0,26.0,37,0.00,,,0.00,847.000000,,2013-04-08 19:12:00,
2013-04-08 12:22:00,56.0,30.0,-100.00,WSW,237,16.0,26.0,37,0.00,,,0.00,847.000000,,2013-04-08 19:22:00,
2013-04-08 12:33:00,56.0,30.0,-100.00,WSW,237,16.0,26.0,37,0.00,,,0.00,847.000000,,2013-04-08 19:33:00,
2013-04-08 12:42:00,56.0,30.0,-100.00,WSW,237,16.0,26.0,37,0.00,,,0.00,847.000000,,2013-04-08 19:42:00,
2013-04-08 13:12:00,59.0,30.0,-100.00,WSW,245,11.0,24.0,33,0.00,,,0.00,911.000000,,2013-04-08 20:12:00,
2013-04-08 13:22:00,59.0,30.0,-100.00,WSW,245,11.0,24.0,33,0.00,,,0.00,911.000000,,2013-04-08 20:22:00,
2013-04-08 13:32:00,59.0,30.0,-100.00,WSW,245,11.0,24.0,33,0.00,,,0.00,911.000000,,2013-04-08 20:32:00,
2013-04-08 13:42:00,59.0,30.0,-100.00,WSW,245,11.0,24.0,33,0.00,,,0.00,911.000000,,2013-04-08 20:42:00,
2013-04-08 14:12:00,63.0,32.0,-100.00,SW,217,4.0,19.0,31,0.00,,,0.00,931.000000,,2013-04-08 21:12:00,
2013-04-08 14:22:00,63.0,32.0,-100.00,SW,217,4.0,19.0,31,0.00,,,0.00,931.000000,,2013-04-08 21:22:00,
2013-04-08 14:32:00,63.0,32.0,-100.00,SW,217,4.0,19.0,31,0.00,,,0.00,931.000000,,2013-04-08 21:32:00,
2013-04-08 14:42:00,63.0,32.0,-100.00,SW,217,4.0,19.0,31,0.00,,,0.00,931.000000,,2013-04-08 21:42:00,
2013-04-08 15:13:00,60.0,25.0,-100.00,NNE,27,13.0,26.0,26,0.00,,,0.00,691.000000,,2013-04-08 22:13:00,
2013-04-08 15:22:00,60.0,25.0,-100.00,NNE,27,13.0,26.0,26,0.00,,,0.00,691.000000,,2013-04-08 22:22:00,
2013-04-08 15:42:00,60.0,25.0,-100.00,NNE,27,13.0,26.0,26,0.00,,,0.00,691.000000,,2013-04-08 22:42:00,
2013-04-08 16:12:00,61.0,25.0,-100.00,NW,320,15.0,36.0,25,0.00,,,0.00,753.000000,,2013-04-08 23:12:00,
2013-04-08 16:22:00,61.0,25.0,-100.00,NW,320,15.0,36.0,25,0.00,,,0.00,753.000000,,2013-04-08 23:22:00,
2013-04-08 16:32:00,61.0,25.0,-100.00,NW,320,15.0,36.0,25,0.00,,,0.00,753.000000,,2013-04-08 23:32:00,
2013-04-08 16:42:00,61.0,25.0,-100.00,NW,320,15.0,36.0,25,0.00,,,0.00,753.000000,,2013-04-08 23:42:00,
2013-04-08 17:12:00,60.0,28.0,-100.00,NNW,342,11.0,37.0,29,0.00,,,0.00,586.000000,,2013-04-09 00:12:00,
2013-04-08 17:22:00,60.0,28.0,-100.00,NNW,342,11.0,37.0,29,0.00,,,0.00,586.000000,,2013-04-09 00:22:00,
2013-04-08 17:32:00,60.0,28.0,-100.00,NNW,342,11.0,37.0,29,0.00,,,0.00,586.000000,,2013-04-09 00:32:00,
2013-04-08 17:42:00,60.0,28.0,-100.00,NNW,342,11.0,37.0,29,0.00,,,0.00,586.000000,,2013-04-09 00:42:00,
2013-04-08 18:12:00,60.0,27.0,-100.00,NW,314,14.0,34.0,28,0.00,,,0.00,388.000000,,2013-04-09 01:12:00,
2013-04-08 18:22:00,60.0,27.0,-100.00,NW,314,14.0,34.0,28,0.00,,,0.00,388.000000,,2013-04-09 01:22:00,
2013-04-08 18:32:00,60.0,27.0,-100.00,NW,314,14.0,34.0,28,0.00,,,0.00,388.000000,,2013-04-09 01:32:00,
2013-04-08 18:42:00,60.0,27.0,-100.00,NW,314,14.0,34.0,28,0.00,,,0.00,388.000000,,2013-04-09 01:42:00,
2013-04-08 19:12:00,58.0,25.0,-100.00,NW,305,17.0,38.0,28,0.00,,,0.00,173.000000,,2013-04-09 02:12:00,
2013-04-08 19:22:00,58.0,25.0,-100.00,NW,305,17.0,38.0,28,0.00,,,0.00,173.000000,,2013-04-09 02:22:00,
2013-04-08 19:32:00,58.0,25.0,-100.00,NW,305,17.0,38.0,28,0.00,,,0.00,173.000000,,2013-04-09 02:32:00,
2013-04-08 19:42:00,58.0,25.0,-100.00,NW,305,17.0,38.0,28,0.00,,,0.00,173.000000,,2013-04-09 02:42:00,
2013-04-08 20:12:00,57.0,26.0,-100.00,WNW,289,15.0,31.0,30,0.00,,,0.00,19.000000,,2013-04-09 03:12:00,
2013-04-08 20:21:00,57.0,26.0,-100.00,WNW,289,15.0,31.0,30,0.00,,,0.00,19.000000,,2013-04-09 03:21:00,
2013-04-08 20:32:00,57.0,26.0,-100.00,WNW,289,15.0,31.0,30,0.00,,,0.00,19.000000,,2013-04-09 03:32:00,
2013-04-08 20:42:00,57.0,26.0,-100.00,WNW,289,15.0,31.0,30,0.00,,,0.00,19.000000,,2013-04-09 03:42:00,
2013-04-08 21:13:00,56.0,25.0,-100.00,WNW,295,10.0,26.0,30,0.00,,,0.00,1.000000,,2013-04-09 04:13:00,
2013-04-08 21:22:00,56.0,25.0,-100.00,WNW,295,10.0,26.0,30,0.00,,,0.00,1.000000,,2013-04-09 04:22:00,
2013-04-08 21:32:00,56.0,25.0,-100.00,WNW,295,10.0,26.0,30,0.00,,,0.00,1.000000,,2013-04-09 04:32:00,
2013-04-08 21:42:00,56.0,25.0,-100.00,WNW,295,10.0,26.0,30,0.00,,,0.00,1.000000,,2013-04-09 04:42:00,
2013-04-08 22:12:00,55.0,27.0,-100.00,West,277,13.0,29.0,34,0.00,,,0.00,0.000000,,2013-04-09 05:12:00,
2013-04-08 22:22:00,55.0,27.0,-100.00,West,277,13.0,29.0,34,0.00,,,0.00,0.000000,,2013-04-09 05:22:00,
2013-04-08 22:32:00,55.0,27.0,-100.00,West,277,13.0,29.0,34,0.00,,,0.00,0.000000,,2013-04-09 05:32:00,
2013-04-08 22:42:00,55.0,27.0,-100.00,West,277,13.0,29.0,34,0.00,,,0.00,0.000000,,2013-04-09 05:42:00,
2013-04-08 23:12:00,55.0,27.0,-100.00,WNW,296,12.0,28.0,34,0.00,,,-99.99,0.000000,,2013-04-09 06:12:00,
2013-04-08 23:22:00,55.0,27.0,-100.00,WNW,296,12.0,28.0,34,0.00,,,-99.99,0.000000,,2013-04-09 06:22:00,
2013-04-08 23:32:00,55.0,27.0,-100.00,WNW,296,12.0,28.0,34,0.00,,,-99.99,0.000000,,2013-04-09 06:32:00,
2013-04-08 23:42:00,55.0,27.0,-100.00,WNW,296,12.0,28.0,34,0.00,,,-99.99,0.000000,,2013-04-09 06:42:00,